Time;durP1;ratioP1;P1;durP2;ratioP2;P2;SDS_P1;SDS_P2;PMS_P1;PMS_P2;Temp;Humidity;BMP_temperature;BMP_pressure;BME280_temperature;BME280_humidity;BME280_pressure;Samples;Min_cycle;Max_cycle;Signal;HPM_P1;HPM_P2
2021/12/10 00:01:58;;;;;;;94.20;44.33;;;0.50;57.00;;;;;;6265888;28;20774;-53
2021/12/10 00:05:02;;;;;;;82.57;43.30;;;0.70;56.20;;;;;;6289164;28;20241;-56
2021/12/10 00:08:07;;;;;;;84.17;44.70;;;0.70;57.20;;;;;;6290670;28;20410;-56
2021/12/10 00:11:13;;;;;;;93.83;47.00;;;0.50;56.80;;;;;;6289221;28;20724;-55
2021/12/10 00:14:18;;;;;;;94.20;46.50;;;0.70;57.30;;;;;;6240582;28;20316;-55
2021/12/10 00:17:21;;;;;;;84.30;43.43;;;0.50;56.70;;;;;;6249430;28;20241;-55
2021/12/10 00:20:28;;;;;;;85.77;43.43;;;0.80;57.10;;;;;;6263696;28;20284;-58
2021/12/10 00:23:34;;;;;;;87.50;46.23;;;0.60;56.80;;;;;;6262767;28;20234;-54
2021/12/10 00:26:37;;;;;;;88.40;45.27;;;0.50;57.70;;;;;;6263428;28;20950;-54
2021/12/10 00:29:47;;;;;;;94.10;45.50;;;0.30;57.30;;;;;;6262311;28;20226;-55
2021/12/10 00:32:59;;;;;;;95.10;43.67;;;0.70;56.70;;;;;;6265078;28;20306;-56
2021/12/10 00:36:02;;;;;;;88.03;42.60;;;0.60;57.80;;;;;;6262396;28;20335;-59
2021/12/10 00:39:07;;;;;;;91.43;44.97;;;0.50;56.70;;;;;;6264382;28;20817;-60
2021/12/10 00:42:13;;;;;;;91.33;44.27;;;0.40;56.70;;;;;;6263834;28;20338;-55
2021/12/10 00:45:18;;;;;;;89.07;44.47;;;0.40;56.70;;;;;;6262481;28;20641;-55
2021/12/10 00:48:21;;;;;;;84.13;44.20;;;0.40;57.30;;;;;;6268202;28;20725;-54
2021/12/10 00:51:24;;;;;;;89.53;44.57;;;0.60;57.20;;;;;;6264130;28;20324;-56
2021/12/10 00:54:28;;;;;;;91.03;46.30;;;0.70;57.10;;;;;;6262439;28;20384;-55
2021/12/10 00:57:31;;;;;;;80.20;42.43;;;0.60;57.40;;;;;;6262449;28;20264;-55
2021/12/10 01:00:37;;;;;;;94.23;46.00;;;0.70;57.00;;;;;;6261963;28;20225;-55
2021/12/10 01:03:45;;;;;;;84.23;43.30;;;0.40;58.00;;;;;;6280863;28;20542;-55
2021/12/10 01:06:51;;;;;;;93.33;46.87;;;0.70;58.50;;;;;;6269867;28;20295;-54
2021/12/10 01:09:58;;;;;;;96.63;46.23;;;0.20;57.80;;;;;;6264438;28;20675;-55
2021/12/10 01:13:03;;;;;;;91.30;45.60;;;0.30;57.80;;;;;;6263049;28;20230;-54
2021/12/10 01:23:38;;;;;;;97.20;46.00;;;0.30;58.70;;;;;;6280958;28;20237;-55
2021/12/10 01:26:36;;;;;;;90.43;45.43;;;0.20;58.60;;;;;;6262767;28;20289;-55
2021/12/10 01:29:42;;;;;;;91.40;43.93;;;0.10;59.30;;;;;;6263604;28;20671;-55
2021/12/10 01:32:48;;;;;;;92.83;46.47;;;0.20;58.80;;;;;;6263041;28;20618;-55
2021/12/10 01:35:56;;;;;;;99.73;47.33;;;0.30;59.40;;;;;;6263382;28;20303;-55
2021/12/10 01:38:58;;;;;;;86.63;45.47;;;0.50;59.80;;;;;;6263384;28;20241;-55
2021/12/10 01:42:14;;;;;;;89.43;45.57;;;0.40;58.50;;;;;;6272113;28;20267;-55
2021/12/10 01:45:22;;;;;;;85.33;45.77;;;0.70;59.30;;;;;;6273216;28;20238;-54
2021/12/10 01:48:28;;;;;;;85.23;45.00;;;0.50;59.10;;;;;;6270463;28;20330;-55
2021/12/10 01:51:35;;;;;;;99.37;46.73;;;0.60;59.20;;;;;;6263502;28;20245;-55
2021/12/10 01:54:43;;;;;;;93.10;45.63;;;0.50;58.80;;;;;;6262887;28;20292;-56
2021/12/10 01:57:48;;;;;;;93.73;46.63;;;0.60;57.90;;;;;;6268275;28;20235;-54
2021/12/10 02:00:55;;;;;;;89.73;45.57;;;0.30;57.90;;;;;;6287419;28;20233;-53
2021/12/10 02:04:00;;;;;;;84.00;45.70;;;0.50;58.70;;;;;;6288301;28;20236;-55
2021/12/10 02:07:04;;;;;;;98.73;49.13;;;0.40;58.70;;;;;;6272969;28;20318;-54
2021/12/10 02:10:09;;;;;;;80.93;43.20;;;0.30;58.90;;;;;;6263562;28;20330;-55
2021/12/10 02:13:14;;;;;;;89.53;46.73;;;0.40;58.70;;;;;;6264154;28;20237;-56
2021/12/10 02:16:17;;;;;;;95.20;46.30;;;0.40;59.30;;;;;;6260314;28;20248;-55
2021/12/10 02:19:19;;;;;;;95.17;47.43;;;0.40;58.90;;;;;;6260675;28;20249;-55
2021/12/10 02:22:24;;;;;;;89.43;44.00;;;0.70;58.80;;;;;;6262126;28;20238;-55
2021/12/10 02:25:30;;;;;;;102.03;47.00;;;0.50;58.50;;;;;;6285319;28;20314;-55
2021/12/10 02:28:32;;;;;;;90.93;45.07;;;0.40;58.60;;;;;;6270853;28;20903;-55
2021/12/10 02:31:36;;;;;;;95.63;47.47;;;0.60;59.10;;;;;;6261513;28;20661;-56
2021/12/10 02:34:40;;;;;;;96.73;48.57;;;0.50;58.40;;;;;;6262894;28;20680;-55
2021/12/10 02:37:47;;;;;;;95.17;47.00;;;0.50;58.40;;;;;;6262264;28;20258;-55
2021/12/10 02:40:52;;;;;;;93.70;46.47;;;0.60;59.00;;;;;;6262728;28;20238;-55
2021/12/10 02:43:56;;;;;;;91.80;46.13;;;0.80;59.20;;;;;;6262806;28;20295;-55
2021/12/10 02:47:01;;;;;;;88.13;43.73;;;0.60;58.20;;;;;;6266406;28;20375;-55
2021/12/10 02:50:05;;;;;;;90.53;45.27;;;0.60;58.60;;;;;;6287975;28;20251;-55
2021/12/10 02:53:09;;;;;;;89.33;43.80;;;0.60;59.00;;;;;;6290696;28;20909;-56
2021/12/10 02:56:14;;;;;;;83.83;43.80;;;0.50;57.00;;;;;;6283364;28;20266;-55
2021/12/10 02:59:17;;;;;;;86.97;43.80;;;0.50;56.50;;;;;;6268954;28;20280;-55
2021/12/10 03:02:23;;;;;;;90.97;44.87;;;0.60;56.20;;;;;;6267055;28;20237;-55
2021/12/10 03:05:26;;;;;;;92.10;44.93;;;0.50;56.30;;;;;;6267778;28;20237;-54
2021/12/10 03:08:30;;;;;;;93.40;45.37;;;0.60;55.60;;;;;;6269032;28;20245;-54
2021/12/10 03:11:36;;;;;;;85.23;43.70;;;0.80;56.40;;;;;;6292234;28;20275;-55
2021/12/10 03:14:41;;;;;;;86.40;45.27;;;0.80;57.30;;;;;;6292201;28;20343;-54
2021/12/10 03:17:45;;;;;;;84.90;44.47;;;0.50;57.00;;;;;;6277333;28;20240;-54
2021/12/10 03:20:47;;;;;;;92.90;45.33;;;0.60;57.60;;;;;;6265719;28;20321;-54
2021/12/10 03:23:52;;;;;;;91.47;45.97;;;0.50;57.70;;;;;;6266728;28;20650;-56
2021/12/10 03:26:58;;;;;;;87.30;44.00;;;0.80;57.60;;;;;;6261564;28;20789;-54
2021/12/10 03:30:01;;;;;;;85.90;44.23;;;0.40;58.10;;;;;;6266900;28;20339;-55
2021/12/10 03:33:05;;;;;;;90.57;45.23;;;0.50;58.30;;;;;;6265860;28;20226;-56
2021/12/10 03:36:09;;;;;;;91.93;44.67;;;0.50;57.80;;;;;;6258600;28;20266;-56
2021/12/10 03:39:13;;;;;;;83.93;43.50;;;0.50;58.20;;;;;;6242998;28;20358;-54
2021/12/10 03:42:16;;;;;;;82.23;41.77;;;0.70;57.40;;;;;;6242430;28;20290;-53
2021/12/10 03:45:20;;;;;;;91.00;44.57;;;0.60;57.80;;;;;;6251969;28;20779;-55
2021/12/10 03:48:27;;;;;;;86.53;44.40;;;0.40;58.20;;;;;;6262507;28;20279;-54
2021/12/10 03:51:31;;;;;;;96.57;46.33;;;0.50;57.20;;;;;;6290942;28;20316;-54
2021/12/10 03:54:38;;;;;;;85.80;44.07;;;0.80;57.70;;;;;;6282716;28;20271;-54
2021/12/10 03:57:41;;;;;;;96.27;45.73;;;0.50;58.20;;;;;;6268119;28;20302;-54
2021/12/10 04:00:48;;;;;;;94.70;46.90;;;0.70;57.80;;;;;;6261910;28;20308;-55
2021/12/10 04:03:54;;;;;;;94.00;44.93;;;0.50;57.70;;;;;;6264552;28;20253;-56
2021/12/10 04:06:58;;;;;;;93.80;45.03;;;0.40;58.30;;;;;;6253044;28;20326;-54
2021/12/10 04:10:03;;;;;;;101.37;45.17;;;0.70;58.20;;;;;;6238603;28;20782;-55
2021/12/10 04:13:07;;;;;;;91.80;45.33;;;0.40;58.10;;;;;;6238974;28;20238;-55
2021/12/10 04:16:10;;;;;;;91.47;44.53;;;0.60;57.80;;;;;;6238710;28;20341;-55
2021/12/10 04:19:15;;;;;;;98.00;45.17;;;0.50;57.10;;;;;;6262981;28;20611;-54
2021/12/10 04:22:20;;;;;;;87.23;43.00;;;0.60;57.20;;;;;;6262122;28;20718;-56
2021/12/10 04:25:25;;;;;;;92.70;44.83;;;0.70;58.20;;;;;;6262711;28;20790;-55
2021/12/10 04:28:28;;;;;;;84.13;42.20;;;0.80;57.30;;;;;;6261789;28;20329;-55
2021/12/10 04:31:31;;;;;;;90.67;43.37;;;0.80;57.80;;;;;;6250714;28;20921;-56
2021/12/10 04:34:35;;;;;;;92.80;46.13;;;0.60;57.80;;;;;;6254863;28;20269;-55
2021/12/10 04:37:39;;;;;;;90.33;45.30;;;0.50;57.80;;;;;;6255962;28;20239;-55
2021/12/10 04:40:46;;;;;;;100.37;46.63;;;0.50;57.40;;;;;;6257322;28;20938;-55
2021/12/10 04:43:49;;;;;;;101.30;48.57;;;0.60;58.20;;;;;;6253157;28;20326;-56
2021/12/10 04:46:51;;;;;;;93.60;46.27;;;0.70;58.20;;;;;;6251699;28;20372;-56
2021/12/10 04:49:55;;;;;;;91.00;43.57;;;0.80;58.90;;;;;;6247469;28;20234;-56
2021/12/10 04:52:59;;;;;;;87.83;45.70;;;0.70;57.70;;;;;;6257523;28;20295;-56
2021/12/10 04:56:03;;;;;;;102.40;47.63;;;0.60;57.90;;;;;;6253497;28;20364;-56
2021/12/10 04:59:08;;;;;;;88.03;44.87;;;0.50;57.10;;;;;;6257869;28;20574;-56
2021/12/10 05:02:13;;;;;;;91.93;46.53;;;0.60;58.40;;;;;;6256757;28;20303;-55
2021/12/10 05:05:16;;;;;;;92.97;47.00;;;0.90;57.90;;;;;;6258872;28;20726;-56
2021/12/10 05:08:19;;;;;;;98.43;47.60;;;0.60;57.50;;;;;;6257649;28;20358;-56
2021/12/10 05:11:23;;;;;;;84.37;42.90;;;0.90;57.70;;;;;;6258414;28;20714;-56
2021/12/10 05:14:26;;;;;;;85.30;41.33;;;0.50;57.60;;;;;;6254305;28;20713;-56
2021/12/10 05:17:32;;;;;;;88.23;43.63;;;0.60;58.10;;;;;;6258752;28;20355;-55
2021/12/10 05:20:37;;;;;;;88.17;43.70;;;0.70;58.00;;;;;;6250760;28;20241;-56
2021/12/10 05:23:40;;;;;;;87.87;42.63;;;0.50;57.20;;;;;;6258442;28;20700;-55
2021/12/10 05:26:45;;;;;;;93.27;45.83;;;0.60;57.10;;;;;;6255535;28;20296;-57
2021/12/10 05:29:48;;;;;;;91.40;46.00;;;0.60;58.60;;;;;;6257551;28;20771;-56
2021/12/10 05:32:51;;;;;;;101.73;45.77;;;0.20;57.70;;;;;;6260100;28;20261;-55
2021/12/10 05:35:54;;;;;;;101.47;49.33;;;0.50;59.10;;;;;;6250161;28;20649;-56
2021/12/10 05:38:56;;;;;;;87.80;42.50;;;0.50;58.30;;;;;;6262048;28;20602;-55
2021/12/10 05:42:03;;;;;;;102.53;48.17;;;0.40;58.50;;;;;;6259338;28;20351;-58
2021/12/10 05:45:07;;;;;;;90.83;45.60;;;0.50;58.50;;;;;;6260801;28;20233;-56
2021/12/10 05:48:10;;;;;;;102.17;47.77;;;0.30;59.30;;;;;;6256534;28;20230;-55
2021/12/10 05:51:14;;;;;;;103.10;48.83;;;0.40;58.80;;;;;;6258152;28;20320;-55
2021/12/10 05:54:17;;;;;;;97.57;49.93;;;0.60;59.10;;;;;;6258274;28;20273;-55
2021/12/10 05:57:21;;;;;;;105.10;48.87;;;0.50;59.20;;;;;;6259553;28;20317;-56
2021/12/10 06:00:28;;;;;;;104.10;50.20;;;0.40;60.00;;;;;;6255185;28;20237;-56
2021/12/10 06:03:32;;;;;;;109.13;50.57;;;0.40;59.00;;;;;;6264854;28;20226;-55
2021/12/10 06:06:35;;;;;;;103.30;48.30;;;0.40;59.10;;;;;;6244567;28;20273;-53
2021/12/10 06:09:38;;;;;;;98.57;48.87;;;0.80;59.80;;;;;;6253687;28;20226;-55
2021/12/10 06:12:44;;;;;;;99.77;49.83;;;0.40;59.10;;;;;;6258494;28;20291;-55
2021/12/10 06:15:47;;;;;;;99.33;48.03;;;0.50;59.90;;;;;;6261946;28;20234;-56
2021/12/10 06:18:50;;;;;;;107.73;50.33;;;0.80;60.00;;;;;;6249870;28;20539;-55
2021/12/10 06:21:54;;;;;;;107.70;50.83;;;0.60;59.90;;;;;;6262145;28;20234;-55
2021/12/10 06:24:56;;;;;;;106.10;53.00;;;0.60;59.90;;;;;;6268418;28;20334;-55
2021/12/10 06:28:02;;;;;;;101.50;50.40;;;0.60;59.90;;;;;;6265878;28;20543;-55
2021/12/10 06:31:06;;;;;;;102.17;50.97;;;0.60;59.40;;;;;;6264007;28;20301;-55
2021/12/10 06:34:09;;;;;;;107.00;50.13;;;0.70;59.70;;;;;;6259757;28;20592;-55
2021/12/10 06:37:11;;;;;;;103.03;50.80;;;0.50;59.00;;;;;;6264581;28;20269;-56
2021/12/10 06:40:17;;;;;;;104.63;51.20;;;0.60;59.10;;;;;;6254425;28;20264;-56
2021/12/10 06:43:22;;;;;;;111.40;50.83;;;0.80;59.90;;;;;;6264833;28;20328;-56
2021/12/10 06:46:25;;;;;;;101.73;48.73;;;0.70;59.60;;;;;;6259769;28;20318;-55
2021/12/10 06:49:28;;;;;;;104.33;48.70;;;0.90;59.50;;;;;;6266495;28;20295;-55
2021/12/10 06:52:31;;;;;;;110.97;50.87;;;0.70;58.80;;;;;;6264249;28;20257;-57
2021/12/10 06:55:35;;;;;;;103.63;51.40;;;0.90;58.90;;;;;;6258227;28;20262;-57
2021/12/10 06:58:39;;;;;;;103.80;50.33;;;0.80;59.70;;;;;;6252067;28;20774;-55
2021/12/10 07:01:44;;;;;;;106.93;52.20;;;0.60;59.30;;;;;;6266078;28;20556;-57
2021/12/10 07:04:47;;;;;;;115.97;54.20;;;0.70;59.40;;;;;;6259869;28;20234;-56
2021/12/10 07:07:50;;;;;;;104.27;50.47;;;1.00;59.40;;;;;;6258204;28;20789;-56
2021/12/10 07:10:53;;;;;;;105.83;49.63;;;0.90;59.90;;;;;;6264533;28;20734;-57
2021/12/10 07:13:59;;;;;;;109.63;51.87;;;0.90;59.20;;;;;;6256240;28;20500;-56
2021/12/10 07:17:03;;;;;;;110.23;51.80;;;0.70;59.70;;;;;;6263421;28;20246;-56
2021/12/10 07:20:08;;;;;;;99.23;49.03;;;0.60;59.50;;;;;;6258472;28;20233;-56
2021/12/10 07:23:11;;;;;;;102.77;51.50;;;0.50;59.40;;;;;;6255040;28;20262;-56
2021/12/10 07:26:15;;;;;;;111.30;51.43;;;0.70;59.80;;;;;;6262943;28;20621;-57
2021/12/10 07:29:21;;;;;;;99.67;49.93;;;0.80;59.20;;;;;;6263656;28;20722;-56
2021/12/10 07:32:23;;;;;;;113.63;51.77;;;0.60;59.20;;;;;;6260940;28;20853;-56
2021/12/10 07:35:26;;;;;;;114.27;52.43;;;0.60;60.60;;;;;;6259349;28;20253;-62
2021/12/10 07:38:29;;;;;;;105.83;49.80;;;0.60;60.10;;;;;;6260913;28;20325;-56
2021/12/10 07:41:32;;;;;;;98.53;49.17;;;0.50;59.40;;;;;;6262006;28;20375;-56
2021/12/10 07:44:37;;;;;;;118.57;54.43;;;0.90;60.00;;;;;;6262875;28;20229;-56
2021/12/10 07:47:41;;;;;;;116.13;51.83;;;1.00;60.60;;;;;;6261340;28;20311;-55
2021/12/10 07:50:52;;;;;;;115.30;54.00;;;0.90;60.50;;;;;;6258794;28;20241;-57
2021/12/10 07:53:59;;;;;;;106.13;50.23;;;0.70;60.40;;;;;;6255972;28;20322;-56
2021/12/10 07:57:02;;;;;;;111.53;49.97;;;1.10;59.90;;;;;;6261238;28;20230;-55
2021/12/10 08:00:09;;;;;;;106.47;52.23;;;1.00;60.10;;;;;;6262339;28;20360;-60
2021/12/10 08:03:13;;;;;;;108.23;53.00;;;0.80;59.20;;;;;;6262005;28;20324;-56
2021/12/10 08:06:17;;;;;;;111.03;51.53;;;1.20;60.10;;;;;;6262411;28;20321;-57
2021/12/10 08:09:20;;;;;;;107.13;53.87;;;1.20;60.10;;;;;;6257506;28;20307;-55
2021/12/10 08:12:23;;;;;;;104.27;50.70;;;1.20;59.90;;;;;;6258621;28;20245;-56
2021/12/10 08:15:27;;;;;;;107.47;50.67;;;1.00;58.90;;;;;;6260717;28;20256;-58
2021/12/10 08:18:30;;;;;;;109.63;50.77;;;1.10;59.30;;;;;;6259824;28;20320;-57
2021/12/10 08:21:33;;;;;;;105.60;52.37;;;1.00;59.40;;;;;;6261865;28;20238;-56
2021/12/10 08:24:36;;;;;;;103.43;49.63;;;1.30;59.20;;;;;;6259788;28;20276;-55
2021/12/10 08:27:39;;;;;;;105.03;49.23;;;1.20;59.00;;;;;;6255070;28;20233;-55
2021/12/10 08:30:43;;;;;;;95.40;45.57;;;1.40;58.70;;;;;;6263274;28;20393;-56
2021/12/10 08:33:50;;;;;;;100.57;49.93;;;1.40;59.60;;;;;;6262535;28;20731;-55
2021/12/10 08:36:53;;;;;;;106.93;51.00;;;1.20;58.90;;;;;;6261974;28;20331;-55
2021/12/10 08:39:56;;;;;;;104.10;52.87;;;1.20;58.00;;;;;;6265820;28;20333;-55
2021/12/10 08:42:59;;;;;;;90.17;46.50;;;1.50;58.30;;;;;;6257038;28;20299;-56
2021/12/10 08:46:05;;;;;;;105.43;50.80;;;1.50;58.70;;;;;;6257267;28;20321;-54
2021/12/10 08:49:08;;;;;;;100.93;51.00;;;1.40;58.50;;;;;;6260337;28;20333;-55
2021/12/10 08:52:12;;;;;;;97.97;49.93;;;1.50;58.20;;;;;;6261861;28;20229;-55
2021/12/10 08:55:17;;;;;;;99.97;49.03;;;1.40;58.20;;;;;;6261156;28;20238;-55
2021/12/10 08:58:21;;;;;;;102.07;49.17;;;1.60;57.30;;;;;;6266173;28;20234;-57
2021/12/10 09:01:29;;;;;;;94.87;47.77;;;1.40;57.50;;;;;;6258140;28;20232;-57
2021/12/10 09:04:33;;;;;;;97.63;48.43;;;1.40;57.80;;;;;;6259144;28;20254;-55
2021/12/10 09:07:38;;;;;;;96.13;48.33;;;1.50;57.00;;;;;;6254538;28;20244;-55
2021/12/10 09:10:48;;;;;;;104.90;53.03;;;1.60;57.20;;;;;;6262340;28;20236;-55
2021/12/10 09:13:50;;;;;;;96.03;48.67;;;1.60;56.70;;;;;;6253847;28;20392;-55
2021/12/10 09:16:56;;;;;;;96.03;47.80;;;1.70;56.50;;;;;;6262071;28;20714;-56
2021/12/10 09:20:01;;;;;;;107.97;50.37;;;1.40;55.80;;;;;;6254992;28;20403;-57
2021/12/10 09:23:05;;;;;;;102.47;50.07;;;1.60;55.90;;;;;;6260341;28;20257;-56
2021/12/10 09:26:12;;;;;;;102.03;50.50;;;1.60;55.70;;;;;;6260529;28;20770;-56
2021/12/10 09:29:17;;;;;;;91.67;48.73;;;1.80;56.60;;;;;;6261531;28;20246;-56
2021/12/10 09:32:24;;;;;;;96.50;49.70;;;1.60;55.70;;;;;;6256658;28;20319;-56
2021/12/10 09:35:30;;;;;;;103.57;50.53;;;1.70;56.70;;;;;;6260126;28;20246;-57
2021/12/10 09:38:34;;;;;;;99.77;49.07;;;1.60;55.50;;;;;;6259931;28;20244;-55
2021/12/10 09:41:39;;;;;;;93.77;50.03;;;1.80;54.80;;;;;;6254072;28;20249;-55
2021/12/10 09:44:42;;;;;;;95.30;47.40;;;1.70;55.00;;;;;;6259747;28;20237;-56
2021/12/10 09:47:47;;;;;;;96.40;48.97;;;1.90;54.80;;;;;;6257006;28;20257;-56
2021/12/10 09:50:54;;;;;;;94.27;49.20;;;1.70;53.50;;;;;;6254429;28;20237;-56
2021/12/10 09:54:01;;;;;;;92.40;45.67;;;1.90;54.40;;;;;;6260104;28;20640;-54
2021/12/10 09:57:10;;;;;;;88.17;46.80;;;1.80;54.00;;;;;;6260490;28;20340;-56
2021/12/10 10:00:18;;;;;;;94.87;49.17;;;2.00;53.60;;;;;;6259851;28;20801;-55
2021/12/10 10:03:27;;;;;;;94.87;48.33;;;2.10;52.90;;;;;;6260245;28;20319;-55
2021/12/10 10:06:31;;;;;;;89.30;47.63;;;1.90;52.80;;;;;;6259947;28;20329;-56
2021/12/10 10:09:35;;;;;;;93.63;46.97;;;1.90;53.20;;;;;;6252888;28;20304;-55
2021/12/10 10:12:39;;;;;;;90.30;47.47;;;2.10;53.30;;;;;;6253584;28;20315;-54
2021/12/10 10:15:45;;;;;;;90.40;46.53;;;1.90;52.60;;;;;;6259507;28;20831;-55
2021/12/10 10:18:51;;;;;;;96.17;48.07;;;2.10;53.00;;;;;;6250090;28;20246;-55
2021/12/10 10:21:57;;;;;;;93.20;46.73;;;1.90;53.60;;;;;;6259530;28;20923;-56
2021/12/10 10:25:00;;;;;;;98.13;47.37;;;1.90;53.90;;;;;;6260457;28;20259;-55
2021/12/10 10:28:06;;;;;;;95.00;48.17;;;1.90;53.50;;;;;;6255487;28;20317;-55
2021/12/10 10:31:16;;;;;;;94.77;48.00;;;1.90;52.70;;;;;;6258276;28;20222;-54
2021/12/10 10:34:25;;;;;;;89.87;45.67;;;1.90;53.80;;;;;;6257350;28;20249;-55
2021/12/10 10:37:29;;;;;;;86.10;46.37;;;1.90;54.90;;;;;;6247071;28;20325;-55
2021/12/10 10:40:36;;;;;;;90.93;45.93;;;2.10;54.30;;;;;;6259132;28;20395;-55
2021/12/10 10:43:39;;;;;;;92.87;47.63;;;2.10;54.40;;;;;;6255332;28;20291;-55
2021/12/10 10:46:43;;;;;;;89.30;44.57;;;1.90;54.90;;;;;;6250340;28;20233;-55
2021/12/10 10:49:50;;;;;;;86.87;45.30;;;2.00;56.10;;;;;;6259813;28;20615;-54
2021/12/10 10:52:56;;;;;;;93.33;46.67;;;2.00;55.60;;;;;;6252036;28;20320;-54
2021/12/10 10:56:01;;;;;;;82.80;45.57;;;2.00;56.00;;;;;;6258491;28;20248;-54
2021/12/10 10:59:13;;;;;;;91.87;46.80;;;2.10;55.20;;;;;;6259795;28;20230;-56
2021/12/10 11:02:16;;;;;;;89.77;46.90;;;2.00;55.90;;;;;;6250917;28;20259;-56
2021/12/10 11:05:23;;;;;;;96.80;48.13;;;2.10;56.30;;;;;;6257160;28;20256;-55
2021/12/10 11:08:29;;;;;;;85.67;46.40;;;1.80;56.80;;;;;;6262165;28;20328;-55
2021/12/10 11:11:35;;;;;;;84.47;45.90;;;1.80;57.10;;;;;;6263843;28;20229;-55
2021/12/10 11:14:42;;;;;;;84.10;44.23;;;2.00;56.90;;;;;;6254770;28;20337;-55
2021/12/10 11:17:48;;;;;;;80.33;42.60;;;1.90;57.60;;;;;;6258540;28;20264;-55
2021/12/10 11:20:52;;;;;;;82.37;43.00;;;1.80;58.00;;;;;;6257778;28;20250;-56
2021/12/10 11:24:07;;;;;;;82.93;41.10;;;1.80;57.20;;;;;;6254325;28;20233;-55
2021/12/10 11:27:13;;;;;;;75.50;39.47;;;1.90;58.40;;;;;;6260130;28;20736;-56
2021/12/10 11:30:19;;;;;;;83.57;41.77;;;1.90;57.80;;;;;;6264494;28;20847;-54
2021/12/10 11:33:24;;;;;;;69.37;38.27;;;1.90;57.40;;;;;;6256988;28;20238;-54
2021/12/10 11:36:30;;;;;;;69.43;37.23;;;1.90;58.30;;;;;;6263818;28;20325;-56
2021/12/10 11:39:43;;;;;;;76.23;38.80;;;2.00;56.90;;;;;;6255293;28;21182;-54
2021/12/10 11:42:48;;;;;;;74.23;39.50;;;1.80;57.80;;;;;;6260502;28;20234;-53
2021/12/10 11:46:05;;;;;;;81.93;40.77;;;2.10;57.00;;;;;;6259781;28;20257;-55
2021/12/10 11:49:13;;;;;;;89.50;41.97;;;2.00;57.70;;;;;;6252469;28;20227;-54
2021/12/10 11:52:20;;;;;;;90.17;43.20;;;1.80;56.80;;;;;;6260595;28;20281;-55
2021/12/10 11:55:23;;;;;;;87.67;43.23;;;2.10;57.40;;;;;;6261847;28;20261;-55
2021/12/10 11:58:26;;;;;;;95.80;44.37;;;1.90;57.50;;;;;;6260265;28;20372;-55
2021/12/10 12:01:29;;;;;;;93.80;44.40;;;1.60;57.90;;;;;;6261162;28;20234;-54
2021/12/10 12:04:38;;;;;;;99.47;46.70;;;1.70;58.40;;;;;;6260353;28;20258;-56
2021/12/10 12:07:43;;;;;;;85.83;42.97;;;1.80;58.60;;;;;;6253568;28;20799;-56
2021/12/10 12:10:48;;;;;;;95.83;44.97;;;2.00;59.30;;;;;;6251441;28;20233;-55
2021/12/10 12:13:57;;;;;;;88.43;43.80;;;1.90;58.50;;;;;;6259291;28;20323;-57
2021/12/10 12:17:04;;;;;;;85.77;41.93;;;2.10;58.30;;;;;;6255355;28;20371;-56
2021/12/10 12:20:22;;;;;;;90.23;43.00;;;2.00;58.30;;;;;;6257741;28;20241;-56
2021/12/10 12:26:53;;;;;;;99.40;44.43;;;2.00;58.40;;;;;;6256243;28;20643;-54
2021/12/10 12:30:15;;;;;;;96.87;44.70;;;2.00;57.70;;;;;;6260331;28;20380;-54
2021/12/10 12:33:58;;;;;;;89.47;42.20;;;2.30;58.60;;;;;;6260880;28;20230;-56
2021/12/10 12:37:03;;;;;;;93.70;43.70;;;2.20;58.30;;;;;;6260725;28;20313;-56
2021/12/10 12:40:27;;;;;;;89.53;42.20;;;2.20;58.20;;;;;;6254004;28;20321;-56
2021/12/10 12:43:29;;;;;;;85.77;41.27;;;2.20;56.70;;;;;;6269403;28;20771;-56
2021/12/10 12:47:06;;;;;;;77.47;40.00;;;2.10;57.30;;;;;;6253709;28;20230;-56
2021/12/10 12:50:12;;;;;;;80.17;39.77;;;2.10;57.50;;;;;;6261515;28;20249;-56
2021/12/10 12:53:18;;;;;;;83.50;40.40;;;2.10;57.20;;;;;;6260869;28;20595;-56
2021/12/10 12:56:24;;;;;;;96.23;41.80;;;2.20;56.60;;;;;;6256651;28;20381;-56
2021/12/10 12:59:52;;;;;;;77.13;39.33;;;2.00;56.60;;;;;;6260373;28;20235;-56
2021/12/10 13:02:58;;;;;;;76.20;39.17;;;2.10;56.70;;;;;;6257287;28;20406;-55
2021/12/10 13:06:11;;;;;;;69.33;35.03;;;2.20;57.60;;;;;;6259253;28;20463;-57
2021/12/10 13:09:26;;;;;;;69.73;37.07;;;2.30;58.10;;;;;;6258992;28;20230;-57
2021/12/10 13:12:40;;;;;;;73.63;38.30;;;2.00;56.70;;;;;;6259138;28;20335;-56
2021/12/10 13:15:50;;;;;;;77.77;38.07;;;2.10;56.70;;;;;;6260225;28;20327;-57
2021/12/10 13:18:53;;;;;;;76.07;36.10;;;2.10;57.40;;;;;;6258240;28;20357;-56
2021/12/10 13:22:01;;;;;;;77.23;38.40;;;2.20;58.10;;;;;;6258548;28;20333;-56
2021/12/10 13:25:11;;;;;;;83.93;40.47;;;2.00;58.00;;;;;;6259188;28;20715;-55
2021/12/10 13:28:15;;;;;;;80.60;40.47;;;2.00;57.60;;;;;;6257077;28;20375;-56
2021/12/10 13:31:19;;;;;;;77.37;39.03;;;2.00;57.80;;;;;;6252079;28;20838;-55
2021/12/10 13:34:22;;;;;;;82.40;41.67;;;1.90;57.60;;;;;;6254756;28;20477;-55
2021/12/10 13:37:25;;;;;;;81.37;39.80;;;2.00;56.90;;;;;;6256907;28;20663;-55
2021/12/10 13:40:31;;;;;;;77.47;39.03;;;1.80;57.30;;;;;;6258601;28;20261;-56
2021/12/10 13:43:37;;;;;;;75.13;40.07;;;2.10;57.70;;;;;;6256774;28;20245;-55
2021/12/10 13:46:46;;;;;;;80.77;37.63;;;2.00;57.60;;;;;;6258834;28;20269;-54
2021/12/10 13:50:03;;;;;;;73.80;37.20;;;2.00;57.80;;;;;;6252773;28;20726;-55
2021/12/10 13:53:08;;;;;;;74.63;37.40;;;2.00;58.90;;;;;;6260453;28;20600;-54
2021/12/10 13:56:14;;;;;;;82.23;39.17;;;2.10;59.30;;;;;;6252163;28;20273;-55
2021/12/10 13:59:22;;;;;;;77.87;38.00;;;2.00;59.10;;;;;;6257899;28;20284;-55
2021/12/10 14:02:33;;;;;;;79.17;37.43;;;2.10;59.40;;;;;;6256376;28;20283;-55
2021/12/10 14:05:40;;;;;;;71.27;36.60;;;1.90;59.10;;;;;;6259156;28;20273;-54
2021/12/10 14:08:43;;;;;;;79.23;36.27;;;2.00;59.50;;;;;;6261975;28;20268;-55
2021/12/10 14:12:16;;;;;;;76.83;37.20;;;2.00;58.90;;;;;;6256277;28;20240;-56
2021/12/10 14:15:33;;;;;;;72.47;33.87;;;1.90;59.20;;;;;;6252347;28;20320;-55
2021/12/10 14:18:56;;;;;;;73.27;36.43;;;1.70;58.40;;;;;;6258066;28;20238;-57
2021/12/10 14:22:37;;;;;;;73.67;35.97;;;2.00;58.70;;;;;;6257849;28;20246;-55
2021/12/10 14:26:05;;;;;;;75.80;36.73;;;1.90;59.20;;;;;;6254024;28;20231;-55
2021/12/10 14:29:28;;;;;;;72.50;35.97;;;1.70;59.20;;;;;;6259019;28;20240;-55
2021/12/10 14:32:40;;;;;;;75.10;37.53;;;1.80;59.50;;;;;;6255179;28;20237;-54
2021/12/10 14:35:51;;;;;;;77.73;37.73;;;1.80;60.00;;;;;;6259544;28;20237;-55
2021/12/10 14:39:09;;;;;;;69.87;36.00;;;1.90;59.40;;;;;;6250873;28;20226;-54
2021/12/10 14:42:31;;;;;;;67.57;33.23;;;1.70;59.50;;;;;;6250557;28;20613;-55
2021/12/10 14:45:54;;;;;;;70.13;35.23;;;1.60;59.30;;;;;;6263687;28;20619;-56
2021/12/10 14:49:20;;;;;;;67.73;35.30;;;1.70;59.40;;;;;;6258664;28;20274;-55
2021/12/10 14:52:45;;;;;;;67.87;35.83;;;1.80;60.20;;;;;;6268078;28;20236;-53
2021/12/10 14:56:33;;;;;;;68.00;35.23;;;1.90;59.40;;;;;;6260088;28;20687;-56
2021/12/10 14:59:55;;;;;;;66.13;32.70;;;1.80;60.20;;;;;;6258596;28;20242;-55
2021/12/10 15:03:23;;;;;;;66.50;33.77;;;1.60;59.40;;;;;;6257571;28;20699;-55
2021/12/10 15:06:56;;;;;;;67.37;33.77;;;1.80;59.90;;;;;;6257911;28;20241;-56
2021/12/10 15:10:28;;;;;;;71.80;35.77;;;1.60;59.90;;;;;;6260663;28;20234;-55
2021/12/10 15:13:53;;;;;;;72.43;35.90;;;1.80;60.40;;;;;;6259603;28;20454;-56
2021/12/10 15:17:18;;;;;;;71.57;34.83;;;1.90;60.50;;;;;;6260045;28;20291;-55
2021/12/10 15:20:27;;;;;;;72.27;35.93;;;1.60;60.50;;;;;;6259147;28;20329;-55
2021/12/10 15:23:31;;;;;;;80.00;38.77;;;1.70;60.60;;;;;;6250708;28;20730;-54
2021/12/10 15:26:50;;;;;;;84.53;40.13;;;1.60;59.80;;;;;;6262804;28;20333;-55
2021/12/10 15:29:56;;;;;;;65.27;33.60;;;1.70;60.60;;;;;;6267561;28;20242;-55
2021/12/10 15:33:02;;;;;;;75.47;36.50;;;1.70;60.70;;;;;;6267893;28;20332;-55
2021/12/10 15:36:06;;;;;;;79.63;36.37;;;1.70;60.80;;;;;;6262034;28;20242;-55
2021/12/10 15:39:11;;;;;;;73.63;34.60;;;1.70;60.50;;;;;;6263767;28;20226;-56
2021/12/10 15:42:19;;;;;;;70.10;33.10;;;1.80;60.30;;;;;;6263246;28;20234;-55
2021/12/10 15:45:26;;;;;;;67.70;34.83;;;1.60;60.80;;;;;;6263256;28;20291;-56
2021/12/10 15:48:31;;;;;;;67.90;32.93;;;1.80;60.90;;;;;;6260659;28;20415;-55
2021/12/10 15:51:36;;;;;;;68.30;33.57;;;1.80;60.50;;;;;;6261000;28;20238;-55
2021/12/10 15:54:44;;;;;;;68.23;33.67;;;1.80;60.90;;;;;;6257920;28;20479;-57
2021/12/10 15:57:48;;;;;;;71.30;34.27;;;1.80;60.90;;;;;;6263293;28;20718;-56
2021/12/10 16:00:54;;;;;;;64.77;34.97;;;1.90;60.60;;;;;;6260676;28;20269;-56
2021/12/10 16:04:01;;;;;;;78.37;35.93;;;1.90;60.90;;;;;;6258292;28;20273;-54
2021/12/10 16:07:06;;;;;;;79.27;35.13;;;1.90;60.10;;;;;;6261357;28;20317;-56
2021/12/10 16:10:14;;;;;;;79.30;34.97;;;1.80;60.80;;;;;;6260528;28;20727;-56